Strona główna
METAR-TAF:

METAR-TAF

Lotnisko :

Philip Municipal Airport

Philip, Dakota Południowa, Stany Zjednoczone

Szerokość geograficzna: 44-03-04N, Długość geograficzna: 101-36-04W, wysokość: 673 m

Aktualna obserwacja pogody

Raport powstał 54 minut temu, godzina 12:02 UTC
Wiatr 14 kt od północno-północny wschód
Temperatura -3°C
Wilgotność 80%
Ciśnienie 1025 hPa
Widzialność: 4.8 km
Zachmurzenie całkowite na wysokości 3100 ft
słaby śnieg, zamglenie

METAR: KPHP 251202Z AUTO 03014KT 3SM -SN BR OVC031 M03/M06 A3028 RMK AO2 P0000 T10331056 $

czas: 05:56 (12:56 UTC)


TAF: brakujący

Obserwacja i prognoza pogody dla ponad 4000 lotnisk (raport METAR i TAF).

Dostępne stacje oznaczono żółtymi i czerwonymi punktami na mapie.

Najedź kursorem aby zobaczyć nazwę stacji.

Kliknij aby zobaczyć obserwacje i prognozy pogody.

Aby zmienić mapę: kliknij na zielony przycisk z czarnym krzyżykiem, aby powiększyć; na zielony przycisk z myślnikiem, aby pomniejszyć; na zielone strzałki, aby przejść do map sąsiednich.


METAR-TAF: